createdAt,value
2018-02-13T00:02:19.815Z,-2.10
2018-02-13T00:04:48.087Z,-2.00
2018-02-13T00:07:16.450Z,-2.10
2018-02-13T00:09:44.708Z,-2.00
2018-02-13T00:12:13.752Z,-2.00
2018-02-13T00:14:42.015Z,-2.10
2018-02-13T00:17:10.291Z,-2.00
2018-02-13T00:19:38.598Z,-2.00
2018-02-13T00:22:06.872Z,-2.00
2018-02-13T00:24:35.138Z,-2.00
2018-02-13T00:27:03.550Z,-2.00
2018-02-13T00:29:32.663Z,-1.90
2018-02-13T00:32:00.942Z,-1.90
2018-02-13T00:34:29.254Z,-1.80
2018-02-13T00:36:57.535Z,-1.80
2018-02-13T00:39:25.910Z,-1.80
2018-02-13T00:41:54.273Z,-1.80
2018-02-13T00:44:22.553Z,-1.70
2018-02-13T00:46:50.870Z,-1.60
2018-02-13T00:49:19.138Z,-1.60
2018-02-13T00:51:47.634Z,-1.60
2018-02-13T00:54:16.033Z,-1.60
2018-02-13T00:56:44.304Z,-1.60
2018-02-13T00:59:13.332Z,-1.50
2018-02-13T01:01:41.720Z,-1.50
2018-02-13T01:04:10.055Z,-1.50
2018-02-13T01:06:39.091Z,-1.50
2018-02-13T01:09:07.541Z,-1.50
2018-02-13T01:11:36.304Z,-1.50
2018-02-13T01:14:05.504Z,-1.50
2018-02-13T01:16:34.592Z,-1.50
2018-02-13T01:19:03.728Z,-1.50
2018-02-13T01:21:32.028Z,-1.60
2018-02-13T01:24:00.491Z,-1.40
2018-02-13T01:26:29.641Z,-1.60
2018-02-13T01:28:58.766Z,-1.70
2018-02-13T01:31:27.952Z,-1.80
2018-02-13T01:33:57.065Z,-1.80
2018-02-13T01:36:25.337Z,-1.80
2018-02-13T01:38:53.828Z,-1.90
2018-02-13T01:41:22.216Z,-1.90
2018-02-13T01:43:50.478Z,-2.00
2018-02-13T01:46:18.782Z,-2.00
2018-02-13T01:48:47.162Z,-2.10
2018-02-13T01:51:15.434Z,-2.20
2018-02-13T01:53:43.721Z,-2.20
2018-02-13T01:56:12.116Z,-2.10
2018-02-13T01:58:40.436Z,-2.10
2018-02-13T02:01:08.783Z,-2.10
2018-02-13T02:03:37.087Z,-2.10
2018-02-13T02:06:05.374Z,-2.20
2018-02-13T02:08:33.731Z,-2.10
2018-02-13T02:11:02.800Z,-2.10
2018-02-13T02:13:31.149Z,-2.10
2018-02-13T02:15:59.422Z,-2.20
2018-02-13T02:18:27.748Z,-2.20
2018-02-13T02:20:56.783Z,-2.30
2018-02-13T02:23:25.113Z,-2.30
2018-02-13T02:25:53.382Z,-2.30
2018-02-13T02:28:21.674Z,-2.30
2018-02-13T02:30:50.794Z,-2.30
2018-02-13T02:33:19.062Z,-2.30
2018-02-13T02:35:47.365Z,-2.30
2018-02-13T02:38:15.674Z,-2.40
2018-02-13T02:40:43.980Z,-2.40
2018-02-13T02:43:13.980Z,-2.60
2018-02-13T02:45:42.332Z,-2.60
2018-02-13T02:48:10.694Z,-2.50
2018-02-13T02:50:39.006Z,-2.50
2018-02-13T02:53:07.286Z,-2.50
2018-02-13T02:55:35.693Z,-2.50
2018-02-13T02:58:04.724Z,-2.50
2018-02-13T03:00:32.984Z,-2.60
2018-02-13T03:03:01.299Z,-2.60
2018-02-13T03:05:29.570Z,-2.60
2018-02-13T03:07:57.957Z,-2.70
2018-02-13T03:10:26.224Z,-2.70
2018-02-13T03:12:54.486Z,-2.70
2018-02-13T03:15:22.881Z,-2.70
2018-02-13T03:17:51.152Z,-2.70
2018-02-13T03:20:20.215Z,-2.60
2018-02-13T03:22:48.500Z,-2.70
2018-02-13T03:25:16.846Z,-2.60
2018-02-13T03:27:45.975Z,-2.70
2018-02-13T03:30:14.272Z,-2.70
2018-02-13T03:32:42.529Z,-2.80
2018-02-13T03:35:10.835Z,-2.80
2018-02-13T03:37:39.106Z,-2.80
2018-02-13T03:40:07.485Z,-2.90
2018-02-13T03:42:35.826Z,-2.90
2018-02-13T03:45:04.191Z,-2.90
2018-02-13T03:47:33.222Z,-2.90
2018-02-13T03:50:01.534Z,-3.00
2018-02-13T03:52:29.845Z,-2.90
2018-02-13T03:54:58.121Z,-3.00
2018-02-13T03:57:26.391Z,-3.00
2018-02-13T03:59:54.791Z,-3.00
2018-02-13T04:02:23.127Z,-3.10
2018-02-13T04:04:51.414Z,-3.10
2018-02-13T04:07:20.502Z,-3.10
2018-02-13T04:09:49.947Z,-3.10
2018-02-13T04:12:18.205Z,-3.20
2018-02-13T04:14:46.809Z,-3.10
2018-02-13T04:17:15.082Z,-3.10
2018-02-13T04:19:43.351Z,-3.20
2018-02-13T04:22:11.686Z,-3.20
2018-02-13T04:24:40.059Z,-3.20
2018-02-13T04:27:08.335Z,-3.20
2018-02-13T04:29:36.677Z,-3.10
2018-02-13T04:32:04.932Z,-3.20
2018-02-13T04:34:33.261Z,-3.20
2018-02-13T04:37:01.523Z,-3.20
2018-02-13T04:39:29.789Z,-3.20
2018-02-13T04:41:58.293Z,-3.20
2018-02-13T04:44:26.562Z,-3.30
2018-02-13T04:46:54.903Z,-3.30
2018-02-13T04:49:23.233Z,-3.30
2018-02-13T04:51:51.548Z,-3.30
2018-02-13T04:54:20.621Z,-3.30
2018-02-13T04:56:49.657Z,-3.20
2018-02-13T04:59:18.025Z,-3.30
2018-02-13T05:01:47.002Z,-3.30
2018-02-13T05:04:15.279Z,-3.30
2018-02-13T05:06:44.043Z,-3.40
2018-02-13T05:09:12.377Z,-3.40
2018-02-13T05:11:40.638Z,-3.40
2018-02-13T05:14:08.953Z,-3.30
2018-02-13T05:16:37.343Z,-3.30
2018-02-13T05:19:05.618Z,-3.40
2018-02-13T05:21:34.000Z,-3.30
2018-02-13T05:24:02.261Z,-3.30
2018-02-13T05:26:30.591Z,-3.30
2018-02-13T05:28:59.780Z,-3.20
2018-02-13T05:31:28.077Z,-3.30
2018-02-13T05:33:56.353Z,-3.30
2018-02-13T05:36:24.747Z,-3.30
2018-02-13T05:38:53.005Z,-3.50
2018-02-13T05:41:21.374Z,-3.40
2018-02-13T05:43:50.391Z,-3.40
2018-02-13T05:46:18.788Z,-3.40
2018-02-13T05:48:47.056Z,-3.30
2018-02-13T05:51:15.324Z,-3.20
2018-02-13T05:53:43.636Z,-3.40
2018-02-13T05:56:11.917Z,-3.50
2018-02-13T05:58:40.295Z,-3.50
2018-02-13T06:01:08.564Z,-3.50
2018-02-13T06:03:36.893Z,-3.60
2018-02-13T06:06:05.186Z,-3.70
2018-02-13T06:08:33.517Z,-3.70
2018-02-13T06:11:02.614Z,-3.80
2018-02-13T06:13:30.874Z,-3.90
2018-02-13T06:15:59.141Z,-3.90
2018-02-13T06:18:27.542Z,-3.90
2018-02-13T06:20:56.570Z,-4.00
2018-02-13T06:23:24.842Z,-4.00
2018-02-13T06:25:53.213Z,-4.00
2018-02-13T06:28:21.479Z,-4.10
2018-02-13T06:30:50.505Z,-4.00
2018-02-13T06:33:18.880Z,-4.00
2018-02-13T06:35:47.244Z,-4.00
2018-02-13T06:38:16.212Z,-3.90
2018-02-13T06:40:45.883Z,-3.90
2018-02-13T06:43:14.162Z,-4.00
2018-02-13T06:45:43.205Z,-3.90
2018-02-13T06:48:11.578Z,-3.90
2018-02-13T06:50:40.666Z,-3.90
2018-02-13T06:53:09.698Z,-3.80
2018-02-13T06:55:39.577Z,-3.80
2018-02-13T06:58:08.614Z,-3.70
2018-02-13T07:00:37.007Z,-3.70
2018-02-13T07:03:05.306Z,-3.50
2018-02-13T07:05:33.583Z,-3.60
2018-02-13T07:08:02.768Z,-3.50
2018-02-13T07:10:31.072Z,-3.50
2018-02-13T07:13:00.164Z,-3.30
2018-02-13T07:15:29.328Z,-3.10
2018-02-13T07:17:57.986Z,-3.10
2018-02-13T07:20:26.311Z,-3.00
2018-02-13T07:22:54.631Z,-2.90
2018-02-13T07:25:22.994Z,-2.80
2018-02-13T07:27:52.082Z,-2.50
2018-02-13T07:30:21.236Z,-2.40
2018-02-13T07:32:49.548Z,-2.40
2018-02-13T07:35:18.615Z,-2.40
2018-02-13T07:37:46.919Z,-2.60
2018-02-13T07:40:16.053Z,-2.80
2018-02-13T07:42:44.438Z,-2.80
2018-02-13T07:45:12.689Z,-2.40
2018-02-13T07:47:41.844Z,-2.40
2018-02-13T07:50:10.108Z,-2.00
2018-02-13T07:52:38.379Z,-1.80
2018-02-13T07:55:06.739Z,-1.60
2018-02-13T07:57:36.953Z,-1.60
2018-02-13T08:00:05.364Z,-1.30
2018-02-13T08:02:34.125Z,-1.00
2018-02-13T08:05:02.745Z,-1.10
2018-02-13T08:07:31.066Z,-1.00
2018-02-13T08:10:00.315Z,-1.00
2018-02-13T08:12:28.634Z,-0.90
2018-02-13T08:14:58.647Z,-1.00
2018-02-13T08:17:27.010Z,-1.00
2018-02-13T08:19:55.673Z,-0.70
2018-02-13T08:22:23.963Z,-0.40
2018-02-13T08:24:52.289Z,0.30
2018-02-13T08:27:20.664Z,0.70
2018-02-13T08:29:49.031Z,1.00
2018-02-13T08:32:18.149Z,1.40
2018-02-13T08:34:46.535Z,1.30
2018-02-13T08:37:14.813Z,0.90
2018-02-13T08:39:43.148Z,1.20
2018-02-13T08:42:11.433Z,1.10
2018-02-13T08:44:40.613Z,1.20
2018-02-13T08:47:08.862Z,1.20
2018-02-13T08:49:37.395Z,1.40
2018-02-13T08:52:05.933Z,1.90
2018-02-13T08:54:34.301Z,1.80
2018-02-13T08:57:02.572Z,1.40
2018-02-13T08:59:31.563Z,1.70
2018-02-13T09:01:59.987Z,2.10
2018-02-13T09:04:28.363Z,1.80
2018-02-13T09:06:57.434Z,2.20
2018-02-13T09:09:31.124Z,2.70
2018-02-13T09:11:59.401Z,3.20
2018-02-13T09:14:27.766Z,1.90
2018-02-13T09:16:56.176Z,2.40
2018-02-13T09:19:24.471Z,2.50
2018-02-13T09:21:52.733Z,3.20
2018-02-13T09:24:21.072Z,3.50
2018-02-13T09:26:49.350Z,2.80
2018-02-13T09:29:17.701Z,3.40
2018-02-13T09:31:46.757Z,3.00
2018-02-13T09:34:17.060Z,4.20
2018-02-13T09:36:45.341Z,4.20
2018-02-13T09:39:15.215Z,4.40
2018-02-13T09:41:43.508Z,4.40
2018-02-13T09:44:11.753Z,3.90
2018-02-13T09:46:40.852Z,3.90
2018-02-13T09:49:10.154Z,3.70
2018-02-13T09:51:39.261Z,3.50
2018-02-13T09:54:07.678Z,3.60
2018-02-13T09:56:35.937Z,3.20
2018-02-13T09:59:04.603Z,3.50
2018-02-13T10:01:33.778Z,3.70
2018-02-13T10:04:02.917Z,4.30
2018-02-13T10:06:31.562Z,4.30
2018-02-13T10:09:00.626Z,5.20
2018-02-13T10:11:30.482Z,5.20
2018-02-13T10:13:59.807Z,5.50
2018-02-13T10:16:29.029Z,5.50
2018-02-13T10:18:58.123Z,5.80
2018-02-13T10:21:26.396Z,5.50
2018-02-13T10:23:54.713Z,5.80
2018-02-13T10:26:24.649Z,5.90
2018-02-13T10:28:53.188Z,5.80
2018-02-13T10:31:24.283Z,6.50
2018-02-13T10:33:52.534Z,5.70
2018-02-13T10:36:20.872Z,5.70
2018-02-13T10:38:49.143Z,5.10
2018-02-13T10:41:17.516Z,5.00
2018-02-13T10:43:45.916Z,5.20
2018-02-13T10:46:14.626Z,4.60
2018-02-13T10:48:42.939Z,4.40
2018-02-13T10:51:11.823Z,5.40
2018-02-13T10:53:40.090Z,5.20
2018-02-13T10:56:08.408Z,5.20
2018-02-13T10:58:36.659Z,5.00
2018-02-13T11:01:10.606Z,5.20
2018-02-13T11:03:39.885Z,5.70
2018-02-13T11:06:08.753Z,5.80
2018-02-13T11:08:37.972Z,5.60
2018-02-13T11:11:06.351Z,5.40
2018-02-13T11:13:34.635Z,5.10
2018-02-13T11:16:03.087Z,4.80
2018-02-13T11:18:31.534Z,4.50
2018-02-13T11:21:00.295Z,4.40
2018-02-13T11:23:28.657Z,4.50
2018-02-13T11:25:57.853Z,5.00
2018-02-13T11:28:26.107Z,5.50
2018-02-13T11:30:54.373Z,5.60
2018-02-13T11:33:22.657Z,5.30
2018-02-13T11:35:50.905Z,5.30
2018-02-13T11:38:20.140Z,5.50
2018-02-13T11:40:48.454Z,5.50
2018-02-13T11:43:16.790Z,5.70
2018-02-13T11:45:45.109Z,5.80
2018-02-13T11:48:14.081Z,5.40
2018-02-13T11:50:42.804Z,5.60
2018-02-13T11:53:11.124Z,5.40
2018-02-13T11:55:39.634Z,5.10
2018-02-13T11:58:08.623Z,5.00
2018-02-13T12:00:37.816Z,5.90
2018-02-13T12:03:07.494Z,5.50
2018-02-13T12:05:36.579Z,5.10
2018-02-13T12:08:05.677Z,5.00
2018-02-13T12:10:34.655Z,5.10
2018-02-13T12:13:04.876Z,5.50
2018-02-13T12:15:34.032Z,5.90
2018-02-13T12:18:03.254Z,5.80
2018-02-13T12:20:31.604Z,5.40
2018-02-13T12:22:59.940Z,5.40
2018-02-13T12:25:40.890Z,5.80
2018-02-13T12:28:09.202Z,5.70
2018-02-13T12:30:37.527Z,6.20
2018-02-13T12:33:05.809Z,5.80
2018-02-13T12:35:34.185Z,4.70
2018-02-13T12:38:02.529Z,4.90
2018-02-13T12:40:30.825Z,4.70
2018-02-13T12:42:59.090Z,5.30
2018-02-13T12:45:27.669Z,5.00
2018-02-13T12:47:56.036Z,4.90
2018-02-13T12:50:24.313Z,5.40
2018-02-13T12:52:52.941Z,5.80
2018-02-13T12:55:21.220Z,6.00
2018-02-13T12:57:49.544Z,5.50
2018-02-13T13:00:17.844Z,5.70
2018-02-13T13:02:46.097Z,5.90
2018-02-13T13:05:14.479Z,5.70
2018-02-13T13:07:43.081Z,5.50
2018-02-13T13:10:11.458Z,5.40
2018-02-13T13:12:40.178Z,5.40
2018-02-13T13:15:08.496Z,5.40
2018-02-13T13:17:37.528Z,5.40
2018-02-13T13:20:05.849Z,5.20
2018-02-13T13:22:35.641Z,4.50
2018-02-13T13:25:03.898Z,4.40
2018-02-13T13:27:32.797Z,3.90
2018-02-13T13:30:02.184Z,4.80
2018-02-13T13:32:31.201Z,4.70
2018-02-13T13:34:59.544Z,5.00
2018-02-13T13:37:27.785Z,5.30
2018-02-13T13:39:56.917Z,4.80
2018-02-13T13:42:25.213Z,4.80
2018-02-13T13:44:53.468Z,5.00
2018-02-13T13:47:21.848Z,5.80
2018-02-13T13:49:50.511Z,6.30
2018-02-13T13:52:19.022Z,5.50
2018-02-13T13:54:47.289Z,5.60
2018-02-13T13:57:17.116Z,5.30
2018-02-13T13:59:46.394Z,4.80
2018-02-13T14:02:14.719Z,5.10
2018-02-13T14:04:43.783Z,5.50
2018-02-13T14:07:12.807Z,5.60
2018-02-13T14:09:41.096Z,5.40
2018-02-13T14:12:10.192Z,3.80
2018-02-13T14:14:40.225Z,3.60
2018-02-13T14:17:09.351Z,3.50
2018-02-13T14:19:37.651Z,3.50
2018-02-13T14:22:07.058Z,3.00
2018-02-13T14:24:35.461Z,3.10
2018-02-13T14:27:04.522Z,3.10
2018-02-13T14:29:33.599Z,3.10
2018-02-13T14:32:01.858Z,3.10
2018-02-13T14:34:30.509Z,3.20
2018-02-13T14:37:00.429Z,3.40
2018-02-13T14:39:29.511Z,3.60
2018-02-13T14:41:57.880Z,3.70
2018-02-13T14:44:26.242Z,4.00
2018-02-13T14:46:54.590Z,4.00
2018-02-13T14:49:23.504Z,4.50
2018-02-13T14:51:52.771Z,3.90
2018-02-13T14:54:21.092Z,3.90
2018-02-13T14:56:49.774Z,3.90
2018-02-13T14:59:18.053Z,4.50
2018-02-13T15:01:46.505Z,4.90
2018-02-13T15:04:14.913Z,4.60
2018-02-13T15:06:43.167Z,4.60
2018-02-13T15:09:11.458Z,4.40
2018-02-13T15:11:39.722Z,4.30
2018-02-13T15:14:08.110Z,3.90
2018-02-13T15:16:36.416Z,3.90
2018-02-13T15:19:05.045Z,3.90
2018-02-13T15:21:33.500Z,3.90
2018-02-13T15:24:02.564Z,3.70
2018-02-13T15:26:30.856Z,3.60
2018-02-13T15:28:59.195Z,3.70
2018-02-13T15:31:27.691Z,3.40
2018-02-13T15:33:55.956Z,3.30
2018-02-13T15:36:24.331Z,3.20
2018-02-13T15:38:52.663Z,3.30
2018-02-13T15:41:21.712Z,3.40
2018-02-13T15:43:50.034Z,3.40
2018-02-13T15:46:19.075Z,3.40
2018-02-13T15:48:48.051Z,3.40
2018-02-13T15:51:16.310Z,3.30
2018-02-13T15:53:44.617Z,3.30
2018-02-13T15:56:13.050Z,3.30
2018-02-13T15:58:42.077Z,3.10
2018-02-13T16:01:11.185Z,3.00
2018-02-13T16:03:39.968Z,2.90
2018-02-13T16:06:08.346Z,2.90
2018-02-13T16:08:36.734Z,2.80
2018-02-13T16:11:05.929Z,2.80
2018-02-13T16:13:34.207Z,2.70
2018-02-13T16:16:02.463Z,2.70
2018-02-13T16:18:30.861Z,2.60
2018-02-13T16:20:59.090Z,2.50
2018-02-13T16:23:28.206Z,2.40
2018-02-13T16:25:56.476Z,2.40
2018-02-13T16:28:25.557Z,2.10
2018-02-13T16:30:54.942Z,2.10
2018-02-13T16:33:23.413Z,2.10
2018-02-13T16:35:52.457Z,2.00
2018-02-13T16:38:20.773Z,2.00
2018-02-13T16:40:49.026Z,1.80
2018-02-13T16:43:17.368Z,1.80
2018-02-13T16:45:47.388Z,1.70
2018-02-13T16:48:15.753Z,1.60
2018-02-13T16:50:44.868Z,1.70
2018-02-13T16:53:13.141Z,1.60
2018-02-13T16:55:41.572Z,1.50
2018-02-13T16:58:09.997Z,1.50
2018-02-13T17:00:39.031Z,1.50
2018-02-13T17:03:07.291Z,1.50
2018-02-13T17:05:35.643Z,1.40
2018-02-13T17:08:05.508Z,1.40
2018-02-13T17:10:33.812Z,1.40
2018-02-13T17:13:02.113Z,1.40
2018-02-13T17:15:31.174Z,1.30
2018-02-13T17:17:59.522Z,1.20
2018-02-13T17:20:27.966Z,1.30
2018-02-13T17:22:57.158Z,1.20
2018-02-13T17:25:26.215Z,1.20
2018-02-13T17:27:54.782Z,1.20
2018-02-13T17:30:23.120Z,1.20
2018-02-13T17:32:52.236Z,1.20
2018-02-13T17:35:20.546Z,1.00
2018-02-13T17:37:48.811Z,1.00
2018-02-13T17:40:17.241Z,1.00
2018-02-13T17:42:46.399Z,1.10
2018-02-13T17:45:14.674Z,1.00
2018-02-13T17:47:43.309Z,0.90
2018-02-13T17:50:12.486Z,0.90
2018-02-13T17:52:41.505Z,0.90
2018-02-13T17:55:09.918Z,0.90
2018-02-13T17:57:38.264Z,0.80
2018-02-13T18:00:06.877Z,0.80
2018-02-13T18:02:35.153Z,0.70
2018-02-13T18:05:03.483Z,0.80
2018-02-13T18:07:32.522Z,0.70
2018-02-13T18:10:00.849Z,0.70
2018-02-13T18:12:29.298Z,0.70
2018-02-13T18:14:57.879Z,0.60
2018-02-13T18:17:26.199Z,0.70
2018-02-13T18:19:55.204Z,0.60
2018-02-13T18:22:23.459Z,0.60
2018-02-13T18:24:52.557Z,0.60
2018-02-13T18:27:21.595Z,0.70
2018-02-13T18:29:49.962Z,0.60
2018-02-13T18:32:18.640Z,0.60
2018-02-13T18:34:46.923Z,0.60
2018-02-13T18:37:15.246Z,0.60
2018-02-13T18:39:44.623Z,0.60
2018-02-13T18:42:12.928Z,0.50
2018-02-13T18:44:41.301Z,0.60
2018-02-13T18:47:10.488Z,0.40
2018-02-13T18:49:38.954Z,0.50
2018-02-13T18:54:36.388Z,0.50
2018-02-13T18:57:05.452Z,0.50
2018-02-13T18:59:33.799Z,0.50
2018-02-13T19:02:02.121Z,0.40
2018-02-13T19:04:30.373Z,0.30
2018-02-13T19:06:58.763Z,0.30
2018-02-13T19:09:27.053Z,0.30
2018-02-13T19:11:56.176Z,0.20
2018-02-13T19:14:24.433Z,0.30
2018-02-13T19:19:21.779Z,0.10
2018-02-13T19:21:50.088Z,0.20
2018-02-13T19:24:19.237Z,0.30
2018-02-13T19:26:47.564Z,0.30
2018-02-13T19:29:15.888Z,0.20
2018-02-13T19:31:44.912Z,0.30
2018-02-13T19:34:16.196Z,0.20
2018-02-13T19:36:44.885Z,0.30
2018-02-13T19:39:13.264Z,0.30
2018-02-13T19:41:41.658Z,0.10
2018-02-13T19:44:09.970Z,0.20
2018-02-13T19:46:38.230Z,0.10
2018-02-13T19:49:07.430Z,0.10
2018-02-13T19:51:35.878Z,0.10
2018-02-13T19:54:04.457Z,0.10
2018-02-13T19:56:33.284Z,0.10
2018-02-13T19:59:03.690Z,0.10
2018-02-13T20:01:32.781Z,0.10
2018-02-13T20:04:01.035Z,0.10
2018-02-13T20:06:29.363Z,0.10
2018-02-13T20:08:58.747Z,-0.10
2018-02-13T20:11:27.091Z,-0.10
2018-02-13T20:13:55.397Z,0.00
2018-02-13T20:16:23.726Z,-0.20
2018-02-13T20:18:52.835Z,-0.50
2018-02-13T20:21:21.110Z,-0.60
2018-02-13T20:23:50.220Z,-0.80
2018-02-13T20:26:18.934Z,-0.90
2018-02-13T20:28:47.727Z,-0.60
2018-02-13T20:31:16.451Z,-0.60
2018-02-13T20:33:46.431Z,-0.40
2018-02-13T20:36:16.199Z,-0.40
2018-02-13T20:38:44.495Z,-0.40
2018-02-13T20:41:12.768Z,-0.40
2018-02-13T20:43:41.873Z,-0.40
2018-02-13T20:46:10.154Z,-0.40
2018-02-13T20:48:39.299Z,-0.30
2018-02-13T20:51:07.570Z,-0.30
2018-02-13T20:53:36.748Z,-0.30
2018-02-13T20:56:06.251Z,-0.30
2018-02-13T20:58:34.606Z,-0.40
2018-02-13T21:01:02.884Z,-0.40
2018-02-13T21:03:31.183Z,-0.40
2018-02-13T21:05:59.450Z,-0.40
2018-02-13T21:08:27.870Z,-0.40
2018-02-13T21:10:56.893Z,-0.60
2018-02-13T21:13:25.245Z,-0.50
2018-02-13T21:15:54.283Z,-0.70
2018-02-13T21:18:22.592Z,-0.70
2018-02-13T21:20:50.854Z,-0.70
2018-02-13T21:23:20.062Z,-0.80
2018-02-13T21:25:49.128Z,-0.80
2018-02-13T21:28:17.462Z,-0.80
2018-02-13T21:30:45.777Z,-0.80
2018-02-13T21:33:14.066Z,-0.90
2018-02-13T21:35:42.368Z,-1.00
2018-02-13T21:38:10.628Z,-1.00
2018-02-13T21:40:39.011Z,-1.00
2018-02-13T21:43:07.274Z,-1.10
2018-02-13T21:45:35.549Z,-1.20
2018-02-13T21:48:03.883Z,-1.10
2018-02-13T21:50:44.957Z,-1.10
2018-02-13T21:53:13.305Z,-1.00
2018-02-13T21:55:41.580Z,-1.10
2018-02-13T21:58:09.880Z,-1.20
2018-02-13T22:00:38.158Z,-1.10
2018-02-13T22:03:06.589Z,-1.00
2018-02-13T22:05:34.847Z,-1.00
2018-02-13T22:08:03.140Z,-1.20
2018-02-13T22:10:31.417Z,-1.20
2018-02-13T22:12:59.749Z,-1.20
2018-02-13T22:15:28.044Z,-1.20
2018-02-13T22:17:56.433Z,-1.20
2018-02-13T22:20:24.802Z,-1.20
2018-02-13T22:22:53.115Z,-1.20
2018-02-13T22:25:22.215Z,-1.10
2018-02-13T22:27:50.486Z,-1.20
2018-02-13T22:30:18.786Z,-1.20
2018-02-13T22:32:47.869Z,-1.60
2018-02-13T22:35:16.129Z,-1.60
2018-02-13T22:37:44.460Z,-1.60
2018-02-13T22:40:12.733Z,-1.40
2018-02-13T22:42:41.006Z,-1.50
2018-02-13T22:45:10.371Z,-1.50
2018-02-13T22:47:38.644Z,-1.50
2018-02-13T22:50:06.899Z,-1.50
2018-02-13T22:52:35.320Z,-1.60
2018-02-13T22:55:03.587Z,-1.60
2018-02-13T22:57:31.849Z,-1.50
2018-02-13T23:00:00.204Z,-1.60
2018-02-13T23:02:28.468Z,-1.80
2018-02-13T23:07:31.712Z,-1.80
2018-02-13T23:10:00.040Z,-1.80
2018-02-13T23:12:28.306Z,-1.90
2018-02-13T23:14:56.653Z,-1.80
2018-02-13T23:17:24.925Z,-1.90
2018-02-13T23:19:53.289Z,-1.90
2018-02-13T23:22:21.560Z,-2.00
2018-02-13T23:24:49.904Z,-1.90
2018-02-13T23:27:18.248Z,-2.00
2018-02-13T23:29:47.280Z,-2.20
2018-02-13T23:32:15.622Z,-2.20
2018-02-13T23:34:44.670Z,-2.30
2018-02-13T23:37:13.010Z,-2.30
2018-02-13T23:39:42.029Z,-2.20
2018-02-13T23:42:10.385Z,-2.20
2018-02-13T23:44:38.653Z,-2.30
2018-02-13T23:47:07.738Z,-2.40
2018-02-13T23:49:36.091Z,-2.40
2018-02-13T23:52:04.375Z,-2.50
2018-02-13T23:54:32.686Z,-2.30
2018-02-13T23:57:00.999Z,-2.40
2018-02-13T23:59:29.265Z,-2.50
